sensor_id;sensor_type;location;lat;lon;timestamp;temperature;humidity
4811;DHT22;2419;51.276;6.472;2023-07-13T00:00:18;16.20;99.90
4811;DHT22;2419;51.276;6.472;2023-07-13T00:02:47;16.10;99.90
4811;DHT22;2419;51.276;6.472;2023-07-13T00:05:16;16.10;99.90
4811;DHT22;2419;51.276;6.472;2023-07-13T00:07:44;16.20;99.90
4811;DHT22;2419;51.276;6.472;2023-07-13T00:10:14;16.20;99.90
4811;DHT22;2419;51.276;6.472;2023-07-13T00:12:43;16.10;99.90
4811;DHT22;2419;51.276;6.472;2023-07-13T00:15:14;16.00;99.90
4811;DHT22;2419;51.276;6.472;2023-07-13T00:17:43;15.90;99.90
4811;DHT22;2419;51.276;6.472;2023-07-13T00:20:12;16.00;99.90
4811;DHT22;2419;51.276;6.472;2023-07-13T00:22:40;16.00;99.90
4811;DHT22;2419;51.276;6.472;2023-07-13T00:25:10;16.00;99.90
4811;DHT22;2419;51.276;6.472;2023-07-13T00:27:43;16.00;99.90
4811;DHT22;2419;51.276;6.472;2023-07-13T00:30:15;16.00;99.90
4811;DHT22;2419;51.276;6.472;2023-07-13T00:32:44;15.90;99.90
4811;DHT22;2419;51.276;6.472;2023-07-13T00:35:13;15.90;99.90
4811;DHT22;2419;51.276;6.472;2023-07-13T00:37:42;15.90;99.90
4811;DHT22;2419;51.276;6.472;2023-07-13T00:40:12;15.80;99.90
4811;DHT22;2419;51.276;6.472;2023-07-13T00:42:42;15.80;99.90
4811;DHT22;2419;51.276;6.472;2023-07-13T00:50:40;15.90;99.90
4811;DHT22;2419;51.276;6.472;2023-07-13T00:53:09;15.90;99.90
4811;DHT22;2419;51.276;6.472;2023-07-13T00:55:39;15.90;99.90
4811;DHT22;2419;51.276;6.472;2023-07-13T00:58:09;15.90;99.90
4811;DHT22;2419;51.276;6.472;2023-07-13T01:00:39;15.90;99.90
4811;DHT22;2419;51.276;6.472;2023-07-13T01:03:08;15.90;99.90
4811;DHT22;2419;51.276;6.472;2023-07-13T01:05:36;15.70;99.90
4811;DHT22;2419;51.276;6.472;2023-07-13T01:08:06;15.70;99.90
4811;DHT22;2419;51.276;6.472;2023-07-13T01:10:34;15.70;99.90
4811;DHT22;2419;51.276;6.472;2023-07-13T01:13:06;15.70;99.90
4811;DHT22;2419;51.276;6.472;2023-07-13T01:15:39;15.60;99.90
4811;DHT22;2419;51.276;6.472;2023-07-13T01:18:12;15.70;99.90
4811;DHT22;2419;51.276;6.472;2023-07-13T01:20:48;15.60;99.90
4811;DHT22;2419;51.276;6.472;2023-07-13T01:23:16;15.60;99.90
4811;DHT22;2419;51.276;6.472;2023-07-13T01:25:48;15.60;99.90
4811;DHT22;2419;51.276;6.472;2023-07-13T01:28:16;15.60;99.90
4811;DHT22;2419;51.276;6.472;2023-07-13T01:30:46;15.50;99.90
4811;DHT22;2419;51.276;6.472;2023-07-13T01:33:17;15.60;99.90
4811;DHT22;2419;51.276;6.472;2023-07-13T01:35:48;15.60;99.90
4811;DHT22;2419;51.276;6.472;2023-07-13T01:38:19;15.50;99.90
4811;DHT22;2419;51.276;6.472;2023-07-13T01:40:48;15.50;99.90
4811;DHT22;2419;51.276;6.472;2023-07-13T01:43:17;15.40;99.90
4811;DHT22;2419;51.276;6.472;2023-07-13T01:45:46;15.50;99.90
4811;DHT22;2419;51.276;6.472;2023-07-13T01:48:14;15.50;99.90
4811;DHT22;2419;51.276;6.472;2023-07-13T01:50:42;15.50;99.90
4811;DHT22;2419;51.276;6.472;2023-07-13T01:53:13;15.50;99.90
4811;DHT22;2419;51.276;6.472;2023-07-13T01:55:41;15.40;99.90
4811;DHT22;2419;51.276;6.472;2023-07-13T01:58:10;15.40;99.90
4811;DHT22;2419;51.276;6.472;2023-07-13T02:00:39;15.40;99.90
4811;DHT22;2419;51.276;6.472;2023-07-13T02:03:07;15.40;99.90
4811;DHT22;2419;51.276;6.472;2023-07-13T02:05:36;15.30;99.90
4811;DHT22;2419;51.276;6.472;2023-07-13T02:08:05;15.30;99.90
4811;DHT22;2419;51.276;6.472;2023-07-13T02:10:34;15.20;99.90
4811;DHT22;2419;51.276;6.472;2023-07-13T02:13:05;15.20;99.90
4811;DHT22;2419;51.276;6.472;2023-07-13T02:15:33;15.20;99.90
4811;DHT22;2419;51.276;6.472;2023-07-13T02:18:02;15.20;99.90
4811;DHT22;2419;51.276;6.472;2023-07-13T02:20:31;15.20;99.90
4811;DHT22;2419;51.276;6.472;2023-07-13T02:22:59;15.10;99.90
4811;DHT22;2419;51.276;6.472;2023-07-13T02:25:27;15.10;99.90
4811;DHT22;2419;51.276;6.472;2023-07-13T02:27:57;15.10;99.90
4811;DHT22;2419;51.276;6.472;2023-07-13T02:30:27;15.00;99.90
4811;DHT22;2419;51.276;6.472;2023-07-13T02:32:58;14.90;99.90
4811;DHT22;2419;51.276;6.472;2023-07-13T02:35:26;15.00;99.90
4811;DHT22;2419;51.276;6.472;2023-07-13T02:37:54;14.90;99.90
4811;DHT22;2419;51.276;6.472;2023-07-13T02:40:23;14.90;99.90
4811;DHT22;2419;51.276;6.472;2023-07-13T02:42:52;14.90;99.90
4811;DHT22;2419;51.276;6.472;2023-07-13T02:45:21;14.90;99.90
4811;DHT22;2419;51.276;6.472;2023-07-13T02:47:50;14.80;99.90
4811;DHT22;2419;51.276;6.472;2023-07-13T02:50:18;14.90;99.90
4811;DHT22;2419;51.276;6.472;2023-07-13T02:52:47;14.80;99.90
4811;DHT22;2419;51.276;6.472;2023-07-13T02:55:15;14.80;99.90
4811;DHT22;2419;51.276;6.472;2023-07-13T02:57:43;14.80;99.90
4811;DHT22;2419;51.276;6.472;2023-07-13T03:00:12;14.80;99.90
4811;DHT22;2419;51.276;6.472;2023-07-13T03:02:45;14.80;99.90
4811;DHT22;2419;51.276;6.472;2023-07-13T03:05:14;14.80;99.90
4811;DHT22;2419;51.276;6.472;2023-07-13T03:07:43;14.80;99.90
4811;DHT22;2419;51.276;6.472;2023-07-13T03:10:12;14.80;99.90
4811;DHT22;2419;51.276;6.472;2023-07-13T03:12:45;14.80;99.90
4811;DHT22;2419;51.276;6.472;2023-07-13T03:15:21;14.80;99.90
4811;DHT22;2419;51.276;6.472;2023-07-13T03:17:52;14.80;99.90
4811;DHT22;2419;51.276;6.472;2023-07-13T03:20:21;14.80;99.90
4811;DHT22;2419;51.276;6.472;2023-07-13T03:22:49;14.70;99.90
4811;DHT22;2419;51.276;6.472;2023-07-13T03:25:19;14.80;99.90
4811;DHT22;2419;51.276;6.472;2023-07-13T03:27:48;14.70;99.90
4811;DHT22;2419;51.276;6.472;2023-07-13T03:30:17;14.70;99.90
4811;DHT22;2419;51.276;6.472;2023-07-13T03:32:45;14.70;99.90
4811;DHT22;2419;51.276;6.472;2023-07-13T03:35:15;14.70;99.90
4811;DHT22;2419;51.276;6.472;2023-07-13T03:37:44;14.70;99.90
4811;DHT22;2419;51.276;6.472;2023-07-13T03:40:17;14.70;99.90
4811;DHT22;2419;51.276;6.472;2023-07-13T03:42:46;14.80;99.90
4811;DHT22;2419;51.276;6.472;2023-07-13T03:45:17;14.80;99.90
4811;DHT22;2419;51.276;6.472;2023-07-13T03:47:46;14.80;99.90
4811;DHT22;2419;51.276;6.472;2023-07-13T03:50:18;14.90;99.90
4811;DHT22;2419;51.276;6.472;2023-07-13T03:52:47;14.80;99.90
4811;DHT22;2419;51.276;6.472;2023-07-13T03:55:16;14.80;99.90
4811;DHT22;2419;51.276;6.472;2023-07-13T03:57:45;14.80;99.90
4811;DHT22;2419;51.276;6.472;2023-07-13T04:00:15;14.80;99.90
4811;DHT22;2419;51.276;6.472;2023-07-13T04:02:44;14.80;99.90
4811;DHT22;2419;51.276;6.472;2023-07-13T04:05:14;14.80;99.90
4811;DHT22;2419;51.276;6.472;2023-07-13T04:07:44;14.80;99.90
4811;DHT22;2419;51.276;6.472;2023-07-13T04:10:12;14.80;99.90
4811;DHT22;2419;51.276;6.472;2023-07-13T04:12:40;14.90;99.90
4811;DHT22;2419;51.276;6.472;2023-07-13T04:15:09;14.90;99.90
4811;DHT22;2419;51.276;6.472;2023-07-13T04:17:37;14.90;99.90
4811;DHT22;2419;51.276;6.472;2023-07-13T04:20:06;14.90;99.90
4811;DHT22;2419;51.276;6.472;2023-07-13T04:22:34;14.90;99.90
4811;DHT22;2419;51.276;6.472;2023-07-13T04:25:04;14.90;99.90
4811;DHT22;2419;51.276;6.472;2023-07-13T04:27:32;15.00;99.90
4811;DHT22;2419;51.276;6.472;2023-07-13T04:30:01;15.00;99.90
4811;DHT22;2419;51.276;6.472;2023-07-13T04:32:29;15.00;99.90
4811;DHT22;2419;51.276;6.472;2023-07-13T04:34:57;15.00;99.90
4811;DHT22;2419;51.276;6.472;2023-07-13T04:37:26;15.10;99.90
4811;DHT22;2419;51.276;6.472;2023-07-13T04:39:56;15.10;99.90
4811;DHT22;2419;51.276;6.472;2023-07-13T04:42:25;15.20;99.90
4811;DHT22;2419;51.276;6.472;2023-07-13T04:44:54;15.10;99.90
4811;DHT22;2419;51.276;6.472;2023-07-13T04:47:25;15.20;99.90
4811;DHT22;2419;51.276;6.472;2023-07-13T04:49:56;15.20;99.90
4811;DHT22;2419;51.276;6.472;2023-07-13T04:52:24;15.40;99.90
4811;DHT22;2419;51.276;6.472;2023-07-13T04:54:54;15.50;99.90
4811;DHT22;2419;51.276;6.472;2023-07-13T04:57:25;15.50;99.90
4811;DHT22;2419;51.276;6.472;2023-07-13T04:59:54;15.50;99.90
4811;DHT22;2419;51.276;6.472;2023-07-13T05:02:23;15.50;99.90
4811;DHT22;2419;51.276;6.472;2023-07-13T05:04:51;15.60;99.90
4811;DHT22;2419;51.276;6.472;2023-07-13T05:07:21;15.50;99.90
4811;DHT22;2419;51.276;6.472;2023-07-13T05:09:50;15.50;99.90
4811;DHT22;2419;51.276;6.472;2023-07-13T05:12:21;15.70;99.90
4811;DHT22;2419;51.276;6.472;2023-07-13T05:14:51;16.00;99.90
4811;DHT22;2419;51.276;6.472;2023-07-13T05:17:19;16.20;99.90
4811;DHT22;2419;51.276;6.472;2023-07-13T05:19:48;16.40;99.90
4811;DHT22;2419;51.276;6.472;2023-07-13T05:22:16;16.70;99.90
4811;DHT22;2419;51.276;6.472;2023-07-13T05:24:44;16.70;99.90
4811;DHT22;2419;51.276;6.472;2023-07-13T05:27:12;16.60;99.90
4811;DHT22;2419;51.276;6.472;2023-07-13T05:29:42;16.80;99.90
4811;DHT22;2419;51.276;6.472;2023-07-13T05:32:12;16.80;99.90
4811;DHT22;2419;51.276;6.472;2023-07-13T05:34:40;16.70;99.90
4811;DHT22;2419;51.276;6.472;2023-07-13T05:37:12;16.60;99.90
4811;DHT22;2419;51.276;6.472;2023-07-13T05:39:42;16.70;99.90
4811;DHT22;2419;51.276;6.472;2023-07-13T05:42:10;16.80;99.90
4811;DHT22;2419;51.276;6.472;2023-07-13T05:44:39;16.90;99.90
4811;DHT22;2419;51.276;6.472;2023-07-13T05:47:07;16.90;99.90
4811;DHT22;2419;51.276;6.472;2023-07-13T05:49:37;16.70;99.90
4811;DHT22;2419;51.276;6.472;2023-07-13T05:52:06;16.60;99.90
4811;DHT22;2419;51.276;6.472;2023-07-13T05:54:34;16.50;99.90
4811;DHT22;2419;51.276;6.472;2023-07-13T05:57:02;16.50;99.90
4811;DHT22;2419;51.276;6.472;2023-07-13T05:59:31;16.50;99.90
4811;DHT22;2419;51.276;6.472;2023-07-13T06:01:59;16.60;99.90
4811;DHT22;2419;51.276;6.472;2023-07-13T06:04:27;16.60;99.90
4811;DHT22;2419;51.276;6.472;2023-07-13T06:06:57;16.70;99.90
4811;DHT22;2419;51.276;6.472;2023-07-13T06:09:25;16.80;99.90
4811;DHT22;2419;51.276;6.472;2023-07-13T06:11:53;16.70;99.90
4811;DHT22;2419;51.276;6.472;2023-07-13T06:14:21;16.80;99.90
4811;DHT22;2419;51.276;6.472;2023-07-13T06:16:50;16.90;99.90
4811;DHT22;2419;51.276;6.472;2023-07-13T06:19:18;17.00;99.90
4811;DHT22;2419;51.276;6.472;2023-07-13T06:21:46;17.10;99.90
4811;DHT22;2419;51.276;6.472;2023-07-13T06:24:16;17.20;99.90
4811;DHT22;2419;51.276;6.472;2023-07-13T06:26:44;17.20;99.90
4811;DHT22;2419;51.276;6.472;2023-07-13T06:29:12;17.10;99.90
4811;DHT22;2419;51.276;6.472;2023-07-13T06:31:43;17.00;99.90
4811;DHT22;2419;51.276;6.472;2023-07-13T06:34:11;16.90;99.90
4811;DHT22;2419;51.276;6.472;2023-07-13T06:36:39;16.80;99.90
4811;DHT22;2419;51.276;6.472;2023-07-13T06:39:08;16.60;99.90
4811;DHT22;2419;51.276;6.472;2023-07-13T06:41:37;16.50;99.90
4811;DHT22;2419;51.276;6.472;2023-07-13T06:44:10;16.60;99.90
4811;DHT22;2419;51.276;6.472;2023-07-13T06:46:39;16.80;99.90
4811;DHT22;2419;51.276;6.472;2023-07-13T06:49:08;16.80;99.90
4811;DHT22;2419;51.276;6.472;2023-07-13T06:51:37;16.80;99.90
4811;DHT22;2419;51.276;6.472;2023-07-13T06:54:05;17.00;99.90
4811;DHT22;2419;51.276;6.472;2023-07-13T06:56:33;17.10;99.90
4811;DHT22;2419;51.276;6.472;2023-07-13T06:59:03;17.00;99.90
4811;DHT22;2419;51.276;6.472;2023-07-13T07:01:32;17.00;99.90
4811;DHT22;2419;51.276;6.472;2023-07-13T07:04:00;17.10;99.90
4811;DHT22;2419;51.276;6.472;2023-07-13T07:06:29;17.10;99.90
4811;DHT22;2419;51.276;6.472;2023-07-13T07:08:57;17.00;99.90
4811;DHT22;2419;51.276;6.472;2023-07-13T07:11:26;17.20;99.90
4811;DHT22;2419;51.276;6.472;2023-07-13T07:13:54;17.40;99.90
4811;DHT22;2419;51.276;6.472;2023-07-13T07:16:24;17.60;99.90
4811;DHT22;2419;51.276;6.472;2023-07-13T07:18:53;17.80;99.90
4811;DHT22;2419;51.276;6.472;2023-07-13T07:21:21;17.80;99.90
4811;DHT22;2419;51.276;6.472;2023-07-13T07:23:52;17.60;99.90
4811;DHT22;2419;51.276;6.472;2023-07-13T07:26:20;17.70;99.90
4811;DHT22;2419;51.276;6.472;2023-07-13T07:28:53;17.80;99.90
4811;DHT22;2419;51.276;6.472;2023-07-13T07:31:43;17.90;99.90
4811;DHT22;2419;51.276;6.472;2023-07-13T07:34:30;17.70;99.90
4811;DHT22;2419;51.276;6.472;2023-07-13T07:36:59;17.70;99.90
4811;DHT22;2419;51.276;6.472;2023-07-13T07:39:31;17.80;99.90
4811;DHT22;2419;51.276;6.472;2023-07-13T07:41:59;18.00;99.90
4811;DHT22;2419;51.276;6.472;2023-07-13T07:44:28;18.10;99.90
4811;DHT22;2419;51.276;6.472;2023-07-13T07:46:57;18.20;99.90
4811;DHT22;2419;51.276;6.472;2023-07-13T07:49:26;18.40;99.90
4811;DHT22;2419;51.276;6.472;2023-07-13T07:51:54;18.50;99.90
4811;DHT22;2419;51.276;6.472;2023-07-13T07:54:22;18.40;99.90
4811;DHT22;2419;51.276;6.472;2023-07-13T07:57:11;18.50;99.90
4811;DHT22;2419;51.276;6.472;2023-07-13T07:59:42;18.50;99.90
4811;DHT22;2419;51.276;6.472;2023-07-13T08:02:14;18.40;99.90
4811;DHT22;2419;51.276;6.472;2023-07-13T08:05:03;18.60;99.90
4811;DHT22;2419;51.276;6.472;2023-07-13T08:07:34;18.50;99.90
4811;DHT22;2419;51.276;6.472;2023-07-13T08:10:02;18.30;99.90
4811;DHT22;2419;51.276;6.472;2023-07-13T08:12:33;18.30;99.90
4811;DHT22;2419;51.276;6.472;2023-07-13T08:15:06;18.40;99.90
4811;DHT22;2419;51.276;6.472;2023-07-13T08:17:38;18.50;99.90
4811;DHT22;2419;51.276;6.472;2023-07-13T08:20:07;18.40;99.90
4811;DHT22;2419;51.276;6.472;2023-07-13T08:22:37;18.40;99.90
4811;DHT22;2419;51.276;6.472;2023-07-13T08:25:06;18.40;99.90
4811;DHT22;2419;51.276;6.472;2023-07-13T08:27:34;18.60;99.90
4811;DHT22;2419;51.276;6.472;2023-07-13T08:30:07;18.80;99.90
4811;DHT22;2419;51.276;6.472;2023-07-13T08:32:38;19.10;99.90
4811;DHT22;2419;51.276;6.472;2023-07-13T08:35:08;19.00;99.90
4811;DHT22;2419;51.276;6.472;2023-07-13T08:37:36;19.10;99.90
4811;DHT22;2419;51.276;6.472;2023-07-13T08:40:07;19.50;99.90
4811;DHT22;2419;51.276;6.472;2023-07-13T08:42:39;19.50;99.90
4811;DHT22;2419;51.276;6.472;2023-07-13T08:45:41;19.30;99.90
4811;DHT22;2419;51.276;6.472;2023-07-13T08:48:18;19.40;99.90
4811;DHT22;2419;51.276;6.472;2023-07-13T08:50:51;19.50;99.90
4811;DHT22;2419;51.276;6.472;2023-07-13T08:53:30;19.50;99.90
4811;DHT22;2419;51.276;6.472;2023-07-13T08:56:02;19.60;99.90
4811;DHT22;2419;51.276;6.472;2023-07-13T08:58:31;19.70;99.90
4811;DHT22;2419;51.276;6.472;2023-07-13T09:01:05;19.80;99.90
4811;DHT22;2419;51.276;6.472;2023-07-13T09:03:55;20.00;99.90
4811;DHT22;2419;51.276;6.472;2023-07-13T09:06:31;20.10;99.90
4811;DHT22;2419;51.276;6.472;2023-07-13T09:09:09;20.00;99.90
4811;DHT22;2419;51.276;6.472;2023-07-13T09:11:46;19.70;99.90
4811;DHT22;2419;51.276;6.472;2023-07-13T09:14:33;20.00;99.90
4811;DHT22;2419;51.276;6.472;2023-07-13T09:17:10;20.10;99.90
4811;DHT22;2419;51.276;6.472;2023-07-13T09:19:47;20.00;99.90
4811;DHT22;2419;51.276;6.472;2023-07-13T09:22:20;20.00;99.90
4811;DHT22;2419;51.276;6.472;2023-07-13T09:24:54;20.20;99.90
4811;DHT22;2419;51.276;6.472;2023-07-13T09:27:29;20.40;99.90
4811;DHT22;2419;51.276;6.472;2023-07-13T09:32:49;20.50;99.90
4811;DHT22;2419;51.276;6.472;2023-07-13T09:35:23;20.60;99.90
4811;DHT22;2419;51.276;6.472;2023-07-13T09:37:58;20.50;99.90
4811;DHT22;2419;51.276;6.472;2023-07-13T09:40:38;20.40;99.90
4811;DHT22;2419;51.276;6.472;2023-07-13T09:43:10;20.60;99.90
4811;DHT22;2419;51.276;6.472;2023-07-13T09:45:40;20.90;99.90
4811;DHT22;2419;51.276;6.472;2023-07-13T09:48:12;20.80;99.90
4811;DHT22;2419;51.276;6.472;2023-07-13T09:50:42;21.10;99.90
4811;DHT22;2419;51.276;6.472;2023-07-13T09:53:12;21.10;99.90
4811;DHT22;2419;51.276;6.472;2023-07-13T09:55:44;20.70;99.90
4811;DHT22;2419;51.276;6.472;2023-07-13T09:58:15;20.40;99.90
4811;DHT22;2419;51.276;6.472;2023-07-13T10:00:53;20.30;99.90
4811;DHT22;2419;51.276;6.472;2023-07-13T10:03:23;20.70;99.90
4811;DHT22;2419;51.276;6.472;2023-07-13T10:05:53;21.20;99.90
4811;DHT22;2419;51.276;6.472;2023-07-13T10:08:25;21.20;99.90
4811;DHT22;2419;51.276;6.472;2023-07-13T10:10:59;21.20;99.90
4811;DHT22;2419;51.276;6.472;2023-07-13T10:13:30;21.10;99.90
4811;DHT22;2419;51.276;6.472;2023-07-13T10:15:59;21.40;99.90
4811;DHT22;2419;51.276;6.472;2023-07-13T10:18:29;21.60;99.90
4811;DHT22;2419;51.276;6.472;2023-07-13T10:21:19;21.70;99.90
4811;DHT22;2419;51.276;6.472;2023-07-13T10:23:54;22.00;99.90
4811;DHT22;2419;51.276;6.472;2023-07-13T10:26:25;22.20;99.90
4811;DHT22;2419;51.276;6.472;2023-07-13T10:28:57;22.00;99.90
4811;DHT22;2419;51.276;6.472;2023-07-13T10:31:27;21.80;99.90
4811;DHT22;2419;51.276;6.472;2023-07-13T10:33:56;21.60;99.90
4811;DHT22;2419;51.276;6.472;2023-07-13T10:36:32;21.50;99.90
4811;DHT22;2419;51.276;6.472;2023-07-13T10:39:03;21.00;99.90
4811;DHT22;2419;51.276;6.472;2023-07-13T10:41:37;21.00;99.90
4811;DHT22;2419;51.276;6.472;2023-07-13T10:44:17;21.90;99.90
4811;DHT22;2419;51.276;6.472;2023-07-13T10:46:47;22.40;99.90
4811;DHT22;2419;51.276;6.472;2023-07-13T10:49:16;22.30;99.90
4811;DHT22;2419;51.276;6.472;2023-07-13T10:51:46;22.00;99.90
4811;DHT22;2419;51.276;6.472;2023-07-13T10:58:23;22.50;99.90
4811;DHT22;2419;51.276;6.472;2023-07-13T11:00:57;23.30;99.90
4811;DHT22;2419;51.276;6.472;2023-07-13T11:03:27;23.30;99.90
4811;DHT22;2419;51.276;6.472;2023-07-13T11:06:07;24.00;98.40
4811;DHT22;2419;51.276;6.472;2023-07-13T11:08:52;23.80;99.10
4811;DHT22;2419;51.276;6.472;2023-07-13T11:11:35;25.10;97.60
4811;DHT22;2419;51.276;6.472;2023-07-13T11:14:05;23.90;97.40
4811;DHT22;2419;51.276;6.472;2023-07-13T11:16:53;23.80;98.20
4811;DHT22;2419;51.276;6.472;2023-07-13T11:19:28;25.20;97.50
4811;DHT22;2419;51.276;6.472;2023-07-13T11:22:22;25.10;96.40
4811;DHT22;2419;51.276;6.472;2023-07-13T11:24:58;24.70;96.30
4811;DHT22;2419;51.276;6.472;2023-07-13T11:27:36;24.20;95.90
4811;DHT22;2419;51.276;6.472;2023-07-13T11:30:23;24.80;96.70
4811;DHT22;2419;51.276;6.472;2023-07-13T11:33:20;25.40;95.30
4811;DHT22;2419;51.276;6.472;2023-07-13T11:36:00;24.40;95.40
4811;DHT22;2419;51.276;6.472;2023-07-13T11:38:37;24.90;94.70
4811;DHT22;2419;51.276;6.472;2023-07-13T11:41:17;25.40;93.80
4811;DHT22;2419;51.276;6.472;2023-07-13T11:43:56;24.70;93.50
4811;DHT22;2419;51.276;6.472;2023-07-13T11:46:34;25.00;93.50
4811;DHT22;2419;51.276;6.472;2023-07-13T11:49:05;24.30;94.60
4811;DHT22;2419;51.276;6.472;2023-07-13T11:51:35;24.20;94.70
4811;DHT22;2419;51.276;6.472;2023-07-13T11:54:10;23.70;94.40
4811;DHT22;2419;51.276;6.472;2023-07-13T11:56:44;23.40;95.60
4811;DHT22;2419;51.276;6.472;2023-07-13T11:59:14;23.80;95.60
4811;DHT22;2419;51.276;6.472;2023-07-13T12:01:44;23.50;96.10
4811;DHT22;2419;51.276;6.472;2023-07-13T12:04:21;24.20;95.90
4811;DHT22;2419;51.276;6.472;2023-07-13T12:07:04;24.10;94.10
4811;DHT22;2419;51.276;6.472;2023-07-13T12:09:34;24.10;95.10
4811;DHT22;2419;51.276;6.472;2023-07-13T12:12:10;24.40;95.30
4811;DHT22;2419;51.276;6.472;2023-07-13T12:14:39;23.90;95.10
4811;DHT22;2419;51.276;6.472;2023-07-13T12:17:13;24.00;95.30
4811;DHT22;2419;51.276;6.472;2023-07-13T12:19:43;24.20;94.00
4811;DHT22;2419;51.276;6.472;2023-07-13T12:22:13;23.50;94.60
4811;DHT22;2419;51.276;6.472;2023-07-13T12:24:43;23.70;94.60
4811;DHT22;2419;51.276;6.472;2023-07-13T12:27:20;23.60;95.10
4811;DHT22;2419;51.276;6.472;2023-07-13T12:29:52;23.10;95.80
4811;DHT22;2419;51.276;6.472;2023-07-13T12:32:24;23.40;95.80
4811;DHT22;2419;51.276;6.472;2023-07-13T12:34:54;23.40;95.00
4811;DHT22;2419;51.276;6.472;2023-07-13T12:37:24;23.10;95.60
4811;DHT22;2419;51.276;6.472;2023-07-13T12:39:52;23.20;95.90
4811;DHT22;2419;51.276;6.472;2023-07-13T12:42:24;23.40;95.20
4811;DHT22;2419;51.276;6.472;2023-07-13T12:44:57;23.80;95.20
4811;DHT22;2419;51.276;6.472;2023-07-13T12:47:28;23.70;95.20
4811;DHT22;2419;51.276;6.472;2023-07-13T12:49:58;24.30;95.00
4811;DHT22;2419;51.276;6.472;2023-07-13T12:52:30;24.60;94.80
4811;DHT22;2419;51.276;6.472;2023-07-13T12:55:10;24.60;94.30
4811;DHT22;2419;51.276;6.472;2023-07-13T12:57:50;24.40;94.30
4811;DHT22;2419;51.276;6.472;2023-07-13T13:00:24;23.80;93.70
4811;DHT22;2419;51.276;6.472;2023-07-13T13:02:56;23.00;94.70
4811;DHT22;2419;51.276;6.472;2023-07-13T13:05:45;22.70;95.30
4811;DHT22;2419;51.276;6.472;2023-07-13T13:08:14;22.40;96.60
4811;DHT22;2419;51.276;6.472;2023-07-13T13:10:42;22.60;96.60
4811;DHT22;2419;51.276;6.472;2023-07-13T13:13:14;23.00;96.10
4811;DHT22;2419;51.276;6.472;2023-07-13T13:15:42;23.10;95.60
4811;DHT22;2419;51.276;6.472;2023-07-13T13:18:16;23.00;96.00
4811;DHT22;2419;51.276;6.472;2023-07-13T13:20:45;22.70;95.00
4811;DHT22;2419;51.276;6.472;2023-07-13T13:23:14;22.30;95.50
4811;DHT22;2419;51.276;6.472;2023-07-13T13:25:49;22.20;95.00
4811;DHT22;2419;51.276;6.472;2023-07-13T13:28:21;22.30;95.60
4811;DHT22;2419;51.276;6.472;2023-07-13T13:30:51;22.70;95.10
4811;DHT22;2419;51.276;6.472;2023-07-13T13:33:20;23.20;95.30
4811;DHT22;2419;51.276;6.472;2023-07-13T13:35:50;23.00;94.70
4811;DHT22;2419;51.276;6.472;2023-07-13T13:38:22;23.50;94.90
4811;DHT22;2419;51.276;6.472;2023-07-13T13:40:52;24.10;94.70
4811;DHT22;2419;51.276;6.472;2023-07-13T13:43:24;24.10;95.20
4811;DHT22;2419;51.276;6.472;2023-07-13T13:45:56;23.90;95.90
4811;DHT22;2419;51.276;6.472;2023-07-13T13:48:31;24.30;95.90
4811;DHT22;2419;51.276;6.472;2023-07-13T13:51:01;24.60;95.10
4811;DHT22;2419;51.276;6.472;2023-07-13T13:53:30;24.90;94.60
4811;DHT22;2419;51.276;6.472;2023-07-13T13:55:58;24.70;94.70
4811;DHT22;2419;51.276;6.472;2023-07-13T13:58:29;25.00;94.80
4811;DHT22;2419;51.276;6.472;2023-07-13T14:00:58;25.20;94.20
4811;DHT22;2419;51.276;6.472;2023-07-13T14:03:26;24.90;93.80
4811;DHT22;2419;51.276;6.472;2023-07-13T14:05:56;24.40;94.40
4811;DHT22;2419;51.276;6.472;2023-07-13T14:08:24;24.40;94.50
4811;DHT22;2419;51.276;6.472;2023-07-13T14:10:55;24.40;94.80
4811;DHT22;2419;51.276;6.472;2023-07-13T14:13:27;24.30;94.80
4811;DHT22;2419;51.276;6.472;2023-07-13T14:15:57;23.30;94.70
4811;DHT22;2419;51.276;6.472;2023-07-13T14:18:27;22.80;96.10
4811;DHT22;2419;51.276;6.472;2023-07-13T14:20:55;22.70;96.30
4811;DHT22;2419;51.276;6.472;2023-07-13T14:23:24;22.70;96.50
4811;DHT22;2419;51.276;6.472;2023-07-13T14:25:52;22.50;96.20
4811;DHT22;2419;51.276;6.472;2023-07-13T14:28:23;22.80;96.60
4811;DHT22;2419;51.276;6.472;2023-07-13T14:30:52;23.00;96.80
4811;DHT22;2419;51.276;6.472;2023-07-13T14:33:23;23.10;96.30
4811;DHT22;2419;51.276;6.472;2023-07-13T14:35:51;22.90;96.00
4811;DHT22;2419;51.276;6.472;2023-07-13T14:38:20;22.90;96.40
4811;DHT22;2419;51.276;6.472;2023-07-13T14:40:49;22.80;95.90
4811;DHT22;2419;51.276;6.472;2023-07-13T14:43:17;22.60;96.60
4811;DHT22;2419;51.276;6.472;2023-07-13T14:45:49;22.60;96.20
4811;DHT22;2419;51.276;6.472;2023-07-13T14:48:20;22.50;95.00
4811;DHT22;2419;51.276;6.472;2023-07-13T14:50:54;22.40;95.70
4811;DHT22;2419;51.276;6.472;2023-07-13T14:53:25;22.30;96.40
4811;DHT22;2419;51.276;6.472;2023-07-13T14:55:55;22.40;97.00
4811;DHT22;2419;51.276;6.472;2023-07-13T14:58:23;22.10;97.30
4811;DHT22;2419;51.276;6.472;2023-07-13T15:00:52;22.20;97.30
4811;DHT22;2419;51.276;6.472;2023-07-13T15:03:24;22.10;97.00
4811;DHT22;2419;51.276;6.472;2023-07-13T15:05:54;21.80;97.60
4811;DHT22;2419;51.276;6.472;2023-07-13T15:08:23;21.80;97.90
4811;DHT22;2419;51.276;6.472;2023-07-13T15:10:52;21.60;98.30
4811;DHT22;2419;51.276;6.472;2023-07-13T15:13:21;21.40;98.60
4811;DHT22;2419;51.276;6.472;2023-07-13T15:15:51;21.20;99.40
4811;DHT22;2419;51.276;6.472;2023-07-13T15:18:23;21.10;99.90
4811;DHT22;2419;51.276;6.472;2023-07-13T15:20:53;21.20;99.90
4811;DHT22;2419;51.276;6.472;2023-07-13T15:23:47;21.30;99.90
4811;DHT22;2419;51.276;6.472;2023-07-13T15:26:17;20.80;99.90
4811;DHT22;2419;51.276;6.472;2023-07-13T15:28:46;20.80;99.90
4811;DHT22;2419;51.276;6.472;2023-07-13T15:31:19;20.80;99.90
4811;DHT22;2419;51.276;6.472;2023-07-13T15:33:50;20.70;99.90
4811;DHT22;2419;51.276;6.472;2023-07-13T15:36:21;20.70;99.90
4811;DHT22;2419;51.276;6.472;2023-07-13T15:38:51;20.60;99.90
4811;DHT22;2419;51.276;6.472;2023-07-13T15:41:22;20.50;99.90
4811;DHT22;2419;51.276;6.472;2023-07-13T15:43:53;20.30;99.90
4811;DHT22;2419;51.276;6.472;2023-07-13T15:46:23;20.10;99.90
4811;DHT22;2419;51.276;6.472;2023-07-13T15:48:53;20.20;99.90
4811;DHT22;2419;51.276;6.472;2023-07-13T15:51:25;20.20;99.90
4811;DHT22;2419;51.276;6.472;2023-07-13T15:53:56;20.30;99.90
4811;DHT22;2419;51.276;6.472;2023-07-13T15:56:27;20.20;99.90
4811;DHT22;2419;51.276;6.472;2023-07-13T15:58:56;20.20;99.90
4811;DHT22;2419;51.276;6.472;2023-07-13T16:01:26;20.30;99.90
4811;DHT22;2419;51.276;6.472;2023-07-13T16:03:55;20.10;99.90
4811;DHT22;2419;51.276;6.472;2023-07-13T16:06:26;20.10;99.90
4811;DHT22;2419;51.276;6.472;2023-07-13T16:08:56;20.10;99.90
4811;DHT22;2419;51.276;6.472;2023-07-13T16:11:31;20.20;99.90
4811;DHT22;2419;51.276;6.472;2023-07-13T16:14:01;20.40;99.90
4811;DHT22;2419;51.276;6.472;2023-07-13T16:16:33;20.40;99.90
4811;DHT22;2419;51.276;6.472;2023-07-13T16:19:04;20.40;99.90
4811;DHT22;2419;51.276;6.472;2023-07-13T16:21:46;20.30;99.90
4811;DHT22;2419;51.276;6.472;2023-07-13T16:24:18;20.30;99.90
4811;DHT22;2419;51.276;6.472;2023-07-13T16:26:48;20.50;99.90
4811;DHT22;2419;51.276;6.472;2023-07-13T16:29:19;20.60;99.90
4811;DHT22;2419;51.276;6.472;2023-07-13T16:31:57;20.60;99.90
4811;DHT22;2419;51.276;6.472;2023-07-13T16:34:26;20.60;99.90
4811;DHT22;2419;51.276;6.472;2023-07-13T16:36:56;20.50;99.90
4811;DHT22;2419;51.276;6.472;2023-07-13T16:39:26;20.50;99.90